Time;durP1;ratioP1;P1;durP2;ratioP2;P2;SDS_P1;SDS_P2;PMS_P1;PMS_P2;Temp;Humidity;BMP_temperature;BMP_pressure;BME280_temperature;BME280_humidity;BME280_pressure;Samples;Min_cycle;Max_cycle;Signal;HPM_P1;HPM_P2
2024/01/21 00:01:19;;;;;;;1.30;1.30;;;3.70;99.90;;;;;;5096600;27;20038;-93
2024/01/21 00:03:45;;;;;;;1.20;1.20;;;3.70;99.90;;;;;;5113309;28;20477;-94
2024/01/21 00:06:16;;;;;;;1.25;1.25;;;3.60;99.90;;;;;;5094793;28;20046;-94
2024/01/21 00:08:44;;;;;;;1.30;1.30;;;3.60;99.90;;;;;;5113080;28;20047;-94
2024/01/21 00:11:20;;;;;;;1.30;1.30;;;3.60;99.90;;;;;;5096316;27;20099;-94
2024/01/21 00:13:49;;;;;;;1.35;1.33;;;3.60;99.90;;;;;;5096357;28;20043;-93
2024/01/21 00:16:24;;;;;;;1.35;1.33;;;3.60;99.90;;;;;;5096639;28;20134;-92
2024/01/21 00:19:01;;;;;;;1.50;1.40;;;3.50;99.90;;;;;;5093963;28;20043;-94
2024/01/21 00:21:27;;;;;;;1.40;1.35;;;3.50;99.90;;;;;;5093076;28;20052;-92
2024/01/21 00:23:58;;;;;;;1.52;1.45;;;3.40;99.90;;;;;;5094441;28;20031;-92
2024/01/21 00:26:44;;;;;;;1.48;1.40;;;3.30;99.90;;;;;;5098164;28;20039;-93
2024/01/21 00:29:13;;;;;;;1.45;1.38;;;3.30;99.90;;;;;;5098614;27;20633;-91
2024/01/21 00:31:41;;;;;;;1.30;1.30;;;3.30;99.90;;;;;;5093437;28;20505;-93
2024/01/21 00:34:07;;;;;;;1.50;1.42;;;3.20;99.90;;;;;;5096589;27;20043;-92
2024/01/21 00:36:32;;;;;;;1.50;1.40;;;3.30;1.00;;;;;;5116843;27;20038;-92
2024/01/21 00:38:58;;;;;;;1.52;1.42;;;3.20;99.90;;;;;;5097151;27;20050;-92
2024/01/21 00:41:28;;;;;;;1.45;1.38;;;3.20;99.90;;;;;;5096178;27;20118;-93
2024/01/21 00:43:57;;;;;;;1.50;1.40;;;3.30;99.90;;;;;;5091306;27;20068;-93
2024/01/21 00:46:29;;;;;;;1.38;1.35;;;3.20;99.90;;;;;;5095073;27;20058;-93
2024/01/21 00:49:12;;;;;;;1.30;1.30;;;3.20;99.90;;;;;;5096719;27;20042;-93
2024/01/21 00:51:38;;;;;;;1.30;1.30;;;3.20;99.90;;;;;;5097965;27;20039;-93
2024/01/21 00:54:08;;;;;;;1.38;1.33;;;3.20;1.00;;;;;;5099126;27;20753;-94
2024/01/21 00:56:57;;;;;;;1.40;1.38;;;3.30;99.90;;;;;;5101841;27;20094;-94
2024/01/21 00:59:28;;;;;;;1.50;1.40;;;3.30;99.90;;;;;;5099612;27;20128;-92
2024/01/21 01:01:59;;;;;;;1.42;1.40;;;3.30;99.90;;;;;;5099423;27;20039;-93
2024/01/21 01:04:31;;;;;;;1.40;1.35;;;3.30;99.90;;;;;;5095352;27;20100;-94
2024/01/21 01:07:07;;;;;;;1.50;1.40;;;3.30;99.90;;;;;;5097494;27;20507;-93
2024/01/21 01:09:58;;;;;;;1.40;1.35;;;3.30;1.00;;;;;;5100378;27;20042;-94
2024/01/21 01:15:42;;;;;;;1.52;1.42;;;3.30;99.90;;;;;;5133999;27;20118;-93
2024/01/21 01:18:15;;;;;;;1.50;1.40;;;3.30;1.00;;;;;;5099923;27;20043;-93
2024/01/21 01:21:00;;;;;;;;;;;;;;;;;;;;;
2024/01/21 01:23:35;;;;;;;1.55;1.45;;;3.30;1.00;;;;;;5116698;27;20002;-93
2024/01/21 01:26:09;;;;;;;1.52;1.42;;;3.30;1.00;;;;;;5098865;27;20042;-94
2024/01/21 01:28:38;;;;;;;1.60;1.50;;;3.30;1.00;;;;;;5100381;27;20039;-93
2024/01/21 01:31:09;;;;;;;1.52;1.42;;;3.30;1.00;;;;;;5098358;27;20126;-93
2024/01/21 01:33:59;;;;;;;1.52;1.42;;;3.30;1.00;;;;;;5113346;27;20062;-93
2024/01/21 01:36:28;;;;;;;1.60;1.50;;;3.30;1.00;;;;;;5098616;27;20047;-93
2024/01/21 01:38:53;;;;;;;1.63;1.52;;;3.30;1.00;;;;;;5098633;27;20122;-93
2024/01/21 01:41:45;;;;;;;1.55;1.45;;;3.40;1.00;;;;;;5097399;27;20552;-91
2024/01/21 01:44:13;;;;;;;1.63;1.52;;;3.40;1.00;;;;;;5095931;27;20119;-93
2024/01/21 01:46:45;;;;;;;1.73;1.63;;;3.30;1.00;;;;;;5097201;27;20069;-92
2024/01/21 01:49:11;;;;;;;1.58;1.48;;;3.50;99.90;;;;;;5097541;27;20039;-93
2024/01/21 01:51:42;;;;;;;1.80;1.70;;;3.40;99.90;;;;;;5115409;27;20043;-93
2024/01/21 01:54:13;;;;;;;1.70;1.60;;;3.40;99.90;;;;;;5098197;27;20176;-93
2024/01/21 01:56:42;;;;;;;1.65;1.55;;;3.50;99.90;;;;;;5098453;27;20050;-93
2024/01/21 01:59:12;;;;;;;1.85;1.75;;;3.50;99.90;;;;;;5098828;27;20046;-92
2024/01/21 02:01:38;;;;;;;1.80;1.70;;;3.40;99.90;;;;;;5099382;27;20043;-92
2024/01/21 02:04:07;;;;;;;1.70;1.60;;;3.50;99.90;;;;;;5097452;27;20043;-92
2024/01/21 02:06:59;;;;;;;1.80;1.70;;;3.60;99.90;;;;;;5097715;27;20068;-93
2024/01/21 02:09:25;;;;;;;1.90;1.80;;;3.50;99.90;;;;;;5096819;27;20071;-92
2024/01/21 02:11:52;;;;;;;1.80;1.70;;;3.60;99.90;;;;;;5095013;27;20147;-92
2024/01/21 02:14:17;;;;;;;1.80;1.70;;;3.60;99.90;;;;;;5097303;27;20047;-91
2024/01/21 02:16:43;;;;;;;1.80;1.70;;;3.50;99.90;;;;;;5096287;27;20047;-92
2024/01/21 02:19:27;;;;;;;1.80;1.70;;;3.60;99.90;;;;;;5095957;27;20400;-92
2024/01/21 02:21:58;;;;;;;1.70;1.60;;;3.60;99.90;;;;;;5097229;27;20104;-93
2024/01/21 02:24:31;;;;;;;1.90;1.80;;;3.60;99.90;;;;;;5096481;27;20042;-92
2024/01/21 02:26:58;;;;;;;1.80;1.70;;;3.60;99.90;;;;;;5095631;27;20050;-92
2024/01/21 02:29:24;;;;;;;2.00;1.90;;;3.60;99.90;;;;;;5099541;27;20075;-92
2024/01/21 02:32:03;;;;;;;1.70;1.60;;;3.60;99.90;;;;;;5097134;27;20876;-92
2024/01/21 02:34:38;;;;;;;1.70;1.60;;;3.60;99.90;;;;;;5101126;27;20039;-92
2024/01/21 02:37:17;;;;;;;1.80;1.70;;;3.60;99.90;;;;;;5100274;27;20069;-93
2024/01/21 02:39:45;;;;;;;1.70;1.60;;;3.60;99.90;;;;;;5113353;27;20473;-92
2024/01/21 02:42:11;;;;;;;1.80;1.70;;;3.60;99.90;;;;;;5096967;27;20047;-92
2024/01/21 02:44:38;;;;;;;1.80;1.70;;;3.60;99.90;;;;;;5078687;27;20050;-92
2024/01/21 02:47:04;;;;;;;1.80;1.70;;;3.60;99.90;;;;;;5098864;27;20039;-91
2024/01/21 02:49:33;;;;;;;1.80;1.70;;;3.60;99.90;;;;;;5096570;27;20047;-92
2024/01/21 02:51:59;;;;;;;1.83;1.73;;;3.60;99.90;;;;;;5096797;27;20058;-90
2024/01/21 02:54:26;;;;;;;1.90;1.80;;;3.70;99.90;;;;;;5097889;27;20092;-91
2024/01/21 02:56:52;;;;;;;1.80;1.70;;;3.90;99.90;;;;;;5096445;27;20047;-90
2024/01/21 02:59:17;;;;;;;1.88;1.77;;;4.00;99.90;;;;;;5094974;27;20066;-91
2024/01/21 03:01:43;;;;;;;1.70;1.60;;;3.90;99.90;;;;;;5096120;27;20644;-90
2024/01/21 03:04:13;;;;;;;1.70;1.60;;;3.90;99.90;;;;;;5094910;27;20050;-91
2024/01/21 03:06:40;;;;;;;1.90;1.80;;;4.10;99.90;;;;;;5096299;27;20050;-89
2024/01/21 03:09:05;;;;;;;1.73;1.63;;;4.20;99.90;;;;;;5094672;27;20070;-90
2024/01/21 03:11:32;;;;;;;1.80;1.70;;;4.10;99.90;;;;;;5092507;27;20454;-89
2024/01/21 03:13:58;;;;;;;1.90;1.80;;;4.20;99.90;;;;;;5095570;27;20077;-90
2024/01/21 03:16:24;;;;;;;1.85;1.75;;;4.30;99.90;;;;;;5094755;27;20067;-88
2024/01/21 03:18:50;;;;;;;1.75;1.65;;;4.30;99.90;;;;;;5095032;27;20122;-88
2024/01/21 03:21:15;;;;;;;1.85;1.75;;;4.40;99.90;;;;;;5096570;27;20710;-91
2024/01/21 03:23:41;;;;;;;1.77;1.67;;;4.30;99.90;;;;;;5107373;27;20039;-91
2024/01/21 03:26:07;;;;;;;1.70;1.60;;;4.40;99.90;;;;;;5090479;27;20051;-91
2024/01/21 03:28:33;;;;;;;1.77;1.67;;;4.50;99.90;;;;;;5094404;27;20066;-89
2024/01/21 03:30:59;;;;;;;1.88;1.77;;;4.60;99.90;;;;;;5091728;27;20610;-88
2024/01/21 03:33:25;;;;;;;1.70;1.60;;;4.60;99.90;;;;;;5092331;27;20042;-88
2024/01/21 03:35:52;;;;;;;1.70;1.60;;;4.60;99.90;;;;;;5093636;27;20126;-90
2024/01/21 03:38:18;;;;;;;1.70;1.60;;;4.60;99.90;;;;;;5112050;27;20126;-90
2024/01/21 03:40:43;;;;;;;1.73;1.63;;;4.60;99.90;;;;;;5109778;27;20043;-90
2024/01/21 03:43:09;;;;;;;1.70;1.60;;;4.60;99.90;;;;;;5093290;27;20116;-90
2024/01/21 03:45:35;;;;;;;1.60;1.50;;;4.70;99.90;;;;;;5092823;27;20043;-90
2024/01/21 03:48:01;;;;;;;1.60;1.50;;;4.70;99.90;;;;;;5092992;27;20120;-91
2024/01/21 03:50:26;;;;;;;1.60;1.50;;;4.70;99.90;;;;;;5091661;27;20058;-88
2024/01/21 03:52:52;;;;;;;1.60;1.50;;;4.60;99.90;;;;;;5095106;27;20112;-88
2024/01/21 03:55:19;;;;;;;1.70;1.60;;;4.60;99.90;;;;;;5093085;27;20289;-88
2024/01/21 03:57:45;;;;;;;1.70;1.60;;;4.60;99.90;;;;;;5110616;27;20629;-88
2024/01/21 04:00:12;;;;;;;1.67;1.58;;;4.50;99.90;;;;;;5091717;28;20096;-89
2024/01/21 04:02:38;;;;;;;1.80;1.70;;;4.50;99.90;;;;;;5108945;28;20050;-89
2024/01/21 04:05:05;;;;;;;1.70;1.60;;;4.60;99.90;;;;;;5092415;28;20043;-89
2024/01/21 04:07:31;;;;;;;1.67;1.58;;;4.60;99.90;;;;;;5090515;27;20039;-89
2024/01/21 04:10:00;;;;;;;1.70;1.60;;;4.80;99.90;;;;;;5115901;27;20042;-90
2024/01/21 04:12:26;;;;;;;1.90;1.80;;;4.70;99.90;;;;;;5096661;27;20043;-88
2024/01/21 04:14:52;;;;;;;1.80;1.70;;;4.90;99.90;;;;;;5097789;27;20050;-89
2024/01/21 04:17:19;;;;;;;1.75;1.65;;;4.90;99.90;;;;;;5095690;27;20046;-87
2024/01/21 04:19:46;;;;;;;1.77;1.67;;;4.90;99.90;;;;;;5098146;27;20061;-92
2024/01/21 04:22:11;;;;;;;1.70;1.60;;;5.00;99.90;;;;;;5095682;27;20047;-89
2024/01/21 04:24:37;;;;;;;1.90;1.80;;;5.10;99.90;;;;;;5096623;27;20046;-89
2024/01/21 04:27:04;;;;;;;1.73;1.63;;;5.20;99.90;;;;;;5094778;27;20046;-92
2024/01/21 04:29:29;;;;;;;1.75;1.65;;;5.20;99.90;;;;;;5095531;27;20126;-91
2024/01/21 04:31:55;;;;;;;1.60;1.50;;;5.20;99.90;;;;;;5114586;27;20466;-90
2024/01/21 04:34:21;;;;;;;1.70;1.60;;;5.40;99.90;;;;;;5095589;27;20555;-88
2024/01/21 04:36:48;;;;;;;1.60;1.50;;;5.50;99.90;;;;;;5095024;27;20462;-87
2024/01/21 04:39:17;;;;;;;1.50;1.40;;;5.50;99.90;;;;;;5095385;27;20089;-88
2024/01/21 04:41:42;;;;;;;1.50;1.40;;;5.50;99.90;;;;;;5095671;27;20076;-89
2024/01/21 04:44:09;;;;;;;1.50;1.40;;;5.40;99.90;;;;;;5094716;27;20039;-90
2024/01/21 04:46:34;;;;;;;1.50;1.40;;;5.50;99.90;;;;;;5113064;27;20050;-89
2024/01/21 04:49:00;;;;;;;1.50;1.40;;;5.40;99.90;;;;;;5094196;27;20047;-89
2024/01/21 04:51:25;;;;;;;1.50;1.40;;;5.40;99.90;;;;;;5094112;27;20035;-89
2024/01/21 04:53:51;;;;;;;1.38;1.35;;;5.20;99.90;;;;;;5113229;27;20039;-87
2024/01/21 04:56:18;;;;;;;1.30;1.30;;;5.20;99.90;;;;;;5096223;27;20047;-91
2024/01/21 04:58:45;;;;;;;1.50;1.40;;;5.10;99.90;;;;;;5113494;27;20047;-89
2024/01/21 05:01:11;;;;;;;1.30;1.30;;;5.20;99.90;;;;;;5095478;27;20472;-89
2024/01/21 05:03:36;;;;;;;1.60;1.50;;;5.20;99.90;;;;;;5115791;27;20637;-90
2024/01/21 05:06:03;;;;;;;1.38;1.35;;;5.10;99.90;;;;;;5095152;27;20039;-88
2024/01/21 05:08:29;;;;;;;1.50;1.40;;;5.10;99.90;;;;;;5110896;27;20215;-90
2024/01/21 05:10:55;;;;;;;1.30;1.30;;;5.10;99.90;;;;;;5093312;27;20047;-88
2024/01/21 05:13:21;;;;;;;1.30;1.30;;;5.30;99.90;;;;;;5094360;27;20504;-88
2024/01/21 05:15:46;;;;;;;1.30;1.30;;;5.10;99.90;;;;;;5094045;27;20047;-91
2024/01/21 05:18:12;;;;;;;1.30;1.30;;;5.00;99.90;;;;;;5110411;27;20130;-89
2024/01/21 05:20:38;;;;;;;1.30;1.30;;;5.00;99.90;;;;;;5113896;27;20035;-89
2024/01/21 05:23:04;;;;;;;1.30;1.30;;;5.00;99.90;;;;;;5094895;27;20047;-90
2024/01/21 05:25:30;;;;;;;1.30;1.30;;;5.10;99.90;;;;;;5097514;27;20453;-91
2024/01/21 05:27:56;;;;;;;1.30;1.30;;;5.00;99.90;;;;;;5093317;27;20039;-90
2024/01/21 05:30:22;;;;;;;1.30;1.30;;;5.10;99.90;;;;;;5094451;27;20035;-89
2024/01/21 05:32:50;;;;;;;1.30;1.30;;;5.00;99.90;;;;;;5110759;27;20039;-90
2024/01/21 05:35:16;;;;;;;1.30;1.30;;;5.10;99.90;;;;;;5110506;27;20118;-89
2024/01/21 05:37:42;;;;;;;1.33;1.33;;;5.00;99.90;;;;;;5096570;27;20051;-89
2024/01/21 05:40:08;;;;;;;1.27;1.27;;;5.10;99.90;;;;;;5095032;27;20540;-88
2024/01/21 05:42:34;;;;;;;1.40;1.40;;;5.10;99.90;;;;;;5111740;27;20080;-90
2024/01/21 05:45:00;;;;;;;1.30;1.30;;;5.10;99.90;;;;;;5111214;27;20047;-89
2024/01/21 05:47:26;;;;;;;1.30;1.30;;;5.10;99.90;;;;;;5095189;27;20069;-91
2024/01/21 05:49:51;;;;;;;1.20;1.20;;;5.10;99.90;;;;;;5097361;27;20039;-90
2024/01/21 05:52:17;;;;;;;1.25;1.25;;;5.10;99.90;;;;;;5111627;27;20067;-86
2024/01/21 05:54:43;;;;;;;1.30;1.30;;;5.20;99.90;;;;;;5092385;27;20035;-90
2024/01/21 05:57:09;;;;;;;1.50;1.40;;;5.30;99.90;;;;;;5112062;27;20492;-90
2024/01/21 05:59:37;;;;;;;1.30;1.30;;;5.30;99.90;;;;;;5096942;27;20420;-93
2024/01/21 06:02:07;;;;;;;1.25;1.25;;;5.30;99.90;;;;;;5097811;27;20032;-93
2024/01/21 06:04:33;;;;;;;1.20;1.20;;;5.40;99.90;;;;;;5094823;27;20041;-87
2024/01/21 06:06:59;;;;;;;1.20;1.20;;;5.50;99.90;;;;;;5113182;27;20399;-90
2024/01/21 06:09:25;;;;;;;1.20;1.20;;;5.60;99.90;;;;;;5091161;27;20080;-89
2024/01/21 06:11:50;;;;;;;1.20;1.20;;;5.60;99.90;;;;;;5113116;27;20047;-87
2024/01/21 06:14:16;;;;;;;1.20;1.20;;;5.60;99.90;;;;;;5095773;27;20057;-90
2024/01/21 06:16:42;;;;;;;1.10;1.10;;;5.60;99.90;;;;;;5094432;27;20039;-87
2024/01/21 06:19:08;;;;;;;1.13;1.13;;;5.70;99.90;;;;;;5110799;27;20477;-90
2024/01/21 06:21:40;;;;;;;1.10;1.10;;;5.70;99.90;;;;;;5095969;27;20077;-89
2024/01/21 06:24:05;;;;;;;1.10;1.10;;;5.70;99.90;;;;;;5094215;27;20476;-90
2024/01/21 06:26:31;;;;;;;1.10;1.10;;;5.70;99.90;;;;;;5109036;27;20100;-86
2024/01/21 06:28:57;;;;;;;1.05;1.05;;;5.70;99.90;;;;;;5093480;27;20058;-93
2024/01/21 06:31:23;;;;;;;1.10;1.10;;;5.60;99.90;;;;;;5110741;27;20065;-88
2024/01/21 06:33:49;;;;;;;1.10;1.10;;;5.60;99.90;;;;;;5091335;27;20210;-89
2024/01/21 06:36:14;;;;;;;1.00;1.00;;;5.60;99.90;;;;;;5113784;27;20126;-90
2024/01/21 06:38:40;;;;;;;1.10;1.10;;;5.50;99.90;;;;;;5110959;27;20046;-90
2024/01/21 06:41:06;;;;;;;1.05;1.05;;;5.60;99.90;;;;;;5092214;27;20583;-90
2024/01/21 06:43:31;;;;;;;1.05;1.05;;;5.40;99.90;;;;;;5109487;27;20095;-91
2024/01/21 06:45:57;;;;;;;1.10;1.10;;;5.40;99.90;;;;;;5093755;27;20051;-88
2024/01/21 06:48:23;;;;;;;1.00;1.00;;;5.50;99.90;;;;;;5108529;27;20078;-89
2024/01/21 06:50:50;;;;;;;1.10;1.10;;;5.50;99.90;;;;;;5109938;27;20732;-89
2024/01/21 06:53:16;;;;;;;1.00;1.00;;;5.40;99.90;;;;;;5093197;27;20047;-90
2024/01/21 06:55:45;;;;;;;1.10;1.10;;;5.40;99.90;;;;;;5109014;27;20062;-88
2024/01/21 06:58:11;;;;;;;1.10;1.10;;;5.30;99.90;;;;;;5093273;27;20051;-87
2024/01/21 07:00:37;;;;;;;1.10;1.10;;;5.30;99.90;;;;;;5110443;27;20062;-89
2024/01/21 07:03:03;;;;;;;1.10;1.10;;;5.30;99.90;;;;;;5093151;27;20042;-87
2024/01/21 07:05:29;;;;;;;1.10;1.10;;;5.30;99.90;;;;;;5092650;27;20070;-87
2024/01/21 07:07:56;;;;;;;1.05;1.05;;;5.40;99.90;;;;;;5108941;27;20144;-87
2024/01/21 07:10:24;;;;;;;1.10;1.10;;;5.40;99.90;;;;;;5107146;27;20505;-88
2024/01/21 07:12:50;;;;;;;1.05;1.05;;;5.50;99.90;;;;;;5094491;27;20043;-89
2024/01/21 07:15:16;;;;;;;1.08;1.08;;;5.40;99.90;;;;;;5110785;27;20054;-88
2024/01/21 07:17:44;;;;;;;1.10;1.10;;;5.40;99.90;;;;;;5091057;27;20134;-87
2024/01/21 07:20:12;;;;;;;1.05;1.05;;;5.40;99.90;;;;;;5095038;27;20062;-89
2024/01/21 07:22:38;;;;;;;1.08;1.08;;;5.40;99.90;;;;;;5092859;27;20039;-90
2024/01/21 07:25:04;;;;;;;1.10;1.10;;;5.40;99.90;;;;;;5097092;27;20171;-88
2024/01/21 07:27:30;;;;;;;1.10;1.10;;;5.40;99.90;;;;;;5109645;27;20165;-93
2024/01/21 07:29:55;;;;;;;1.10;1.10;;;5.40;99.90;;;;;;5092077;27;20515;-90
2024/01/21 07:32:21;;;;;;;1.05;1.05;;;5.40;99.90;;;;;;5111602;27;20047;-88
2024/01/21 07:34:47;;;;;;;1.00;1.00;;;5.30;99.90;;;;;;5093939;27;20070;-90
2024/01/21 07:37:12;;;;;;;1.00;1.00;;;5.30;99.90;;;;;;5094915;27;20039;-89
2024/01/21 07:39:38;;;;;;;1.10;1.10;;;5.30;99.90;;;;;;5095248;27;20100;-90
2024/01/21 07:42:04;;;;;;;1.08;1.08;;;5.30;99.90;;;;;;5093123;27;20121;-88
2024/01/21 07:44:30;;;;;;;1.00;1.00;;;5.30;99.90;;;;;;5093928;27;20047;-92
2024/01/21 07:46:56;;;;;;;1.10;1.10;;;5.30;99.90;;;;;;5094618;27;20148;-90
2024/01/21 07:49:22;;;;;;;1.10;1.10;;;5.30;99.90;;;;;;5097555;27;20117;-91
2024/01/21 07:51:47;;;;;;;1.02;1.02;;;5.30;99.90;;;;;;5111614;27;20198;-88
2024/01/21 07:54:13;;;;;;;1.00;1.00;;;5.30;99.90;;;;;;5095073;27;20424;-90
2024/01/21 07:56:39;;;;;;;1.10;1.10;;;5.30;99.90;;;;;;5095501;27;20046;-92
2024/01/21 07:59:04;;;;;;;1.10;1.10;;;5.20;99.90;;;;;;5093622;27;20039;-91
2024/01/21 08:01:30;;;;;;;1.00;1.00;;;5.30;99.90;;;;;;5094896;28;20047;-92
2024/01/21 08:03:56;;;;;;;1.02;1.02;;;5.30;99.90;;;;;;5095270;27;20134;-93
2024/01/21 08:06:21;;;;;;;1.02;1.02;;;5.30;99.90;;;;;;5112608;28;20043;-89
2024/01/21 08:08:50;;;;;;;1.00;1.00;;;5.20;99.90;;;;;;5093104;28;20488;-90
2024/01/21 08:11:19;;;;;;;1.00;1.00;;;5.20;99.90;;;;;;5112267;27;20039;-91
2024/01/21 08:13:46;;;;;;;1.00;1.00;;;5.30;99.90;;;;;;5094598;28;20061;-91
2024/01/21 08:16:12;;;;;;;1.00;1.00;;;5.20;99.90;;;;;;5095115;28;20077;-90
2024/01/21 08:18:38;;;;;;;1.00;1.00;;;5.20;99.90;;;;;;5093578;28;20054;-91
2024/01/21 08:21:03;;;;;;;0.93;0.93;;;5.30;99.90;;;;;;5112577;28;20051;-90
2024/01/21 08:23:34;;;;;;;1.00;1.00;;;5.30;99.90;;;;;;5093532;28;20054;-90
2024/01/21 08:26:02;;;;;;;0.98;0.98;;;5.30;99.90;;;;;;5093565;28;20095;-88
2024/01/21 08:28:28;;;;;;;1.00;1.00;;;5.30;99.90;;;;;;5095231;28;20050;-91
2024/01/21 08:30:53;;;;;;;0.95;0.95;;;5.40;99.90;;;;;;5111485;28;20047;-92
2024/01/21 08:33:19;;;;;;;1.00;1.00;;;5.40;99.90;;;;;;5099769;28;20111;-91
2024/01/21 08:35:45;;;;;;;1.00;1.00;;;5.40;99.90;;;;;;5111620;28;20035;-91
2024/01/21 08:38:11;;;;;;;0.98;0.98;;;5.40;99.90;;;;;;5090500;28;20050;-93
2024/01/21 08:40:38;;;;;;;1.02;1.02;;;5.40;99.90;;;;;;5108928;28;20282;-92
2024/01/21 08:43:04;;;;;;;1.02;1.02;;;5.50;99.90;;;;;;5094490;28;20137;-92
2024/01/21 08:45:29;;;;;;;0.98;0.98;;;5.60;99.90;;;;;;5093624;28;20170;-89
2024/01/21 08:47:58;;;;;;;1.08;1.08;;;5.70;99.90;;;;;;5088975;27;20043;-92
2024/01/21 08:50:24;;;;;;;0.98;0.98;;;5.70;99.90;;;;;;5092006;28;20058;-94
2024/01/21 08:52:50;;;;;;;1.00;1.00;;;5.70;99.90;;;;;;5093680;28;20043;-90
2024/01/21 08:55:15;;;;;;;1.30;1.20;;;5.50;99.90;;;;;;5112969;27;20032;-90
2024/01/21 08:57:41;;;;;;;1.10;1.10;;;5.50;99.90;;;;;;5096325;27;20046;-89
2024/01/21 09:00:08;;;;;;;1.08;1.08;;;5.50;99.90;;;;;;5096448;27;20051;-91
2024/01/21 09:02:34;;;;;;;1.10;1.10;;;5.50;99.90;;;;;;5095347;27;20043;-89
2024/01/21 09:05:00;;;;;;;1.05;1.05;;;5.50;99.90;;;;;;5091370;27;20055;-90
2024/01/21 09:07:26;;;;;;;1.10;1.10;;;5.50;99.90;;;;;;5099812;27;20442;-89
2024/01/21 09:09:51;;;;;;;1.05;1.05;;;5.60;99.90;;;;;;5113156;27;20047;-93
2024/01/21 09:12:20;;;;;;;1.00;1.00;;;5.50;99.90;;;;;;5096064;27;20140;-91
2024/01/21 09:14:45;;;;;;;1.00;1.00;;;5.50;99.90;;;;;;5113399;27;20486;-91
2024/01/21 09:17:11;;;;;;;1.08;1.08;;;5.60;99.90;;;;;;5098333;27;20053;-91
2024/01/21 09:19:37;;;;;;;1.15;1.15;;;5.60;99.90;;;;;;5097419;27;20435;-92
2024/01/21 09:22:05;;;;;;;1.20;1.20;;;5.70;99.90;;;;;;5097323;27;20100;-91
2024/01/21 09:24:31;;;;;;;1.10;1.10;;;5.70;99.90;;;;;;5113304;27;20051;-90
2024/01/21 09:26:59;;;;;;;1.10;1.10;;;5.80;99.90;;;;;;5112637;27;20186;-93
2024/01/21 09:29:25;;;;;;;1.10;1.10;;;5.80;99.90;;;;;;5096307;27;20054;-89
2024/01/21 09:31:58;;;;;;;1.10;1.10;;;5.80;99.90;;;;;;5097015;27;20050;-93
2024/01/21 09:34:24;;;;;;;1.10;1.10;;;5.80;99.90;;;;;;5095857;27;20069;-92
2024/01/21 09:36:51;;;;;;;1.05;1.05;;;5.90;99.90;;;;;;5097302;27;20280;-91
2024/01/21 09:39:18;;;;;;;1.13;1.13;;;5.90;99.90;;;;;;5096718;27;20053;-92
2024/01/21 09:41:44;;;;;;;1.10;1.10;;;5.90;99.90;;;;;;5097525;27;20043;-90
2024/01/21 09:44:10;;;;;;;1.10;1.10;;;5.90;99.90;;;;;;5109622;27;20036;-91
2024/01/21 09:46:36;;;;;;;1.13;1.13;;;5.90;99.90;;;;;;5113674;27;20046;-91
2024/01/21 09:49:04;;;;;;;1.10;1.10;;;6.00;99.90;;;;;;5094649;27;20396;-92
2024/01/21 09:51:30;;;;;;;1.20;1.20;;;6.00;99.90;;;;;;5113692;27;20108;-91
2024/01/21 09:53:56;;;;;;;1.20;1.20;;;6.00;99.90;;;;;;5112773;27;20488;-92
2024/01/21 09:56:23;;;;;;;1.10;1.10;;;6.00;99.90;;;;;;5094994;27;20100;-88
2024/01/21 09:58:50;;;;;;;1.20;1.20;;;6.00;99.90;;;;;;5112598;27;20039;-89
2024/01/21 10:01:17;;;;;;;1.20;1.20;;;6.00;99.90;;;;;;5094930;27;20065;-89
2024/01/21 10:03:46;;;;;;;1.20;1.20;;;6.00;99.90;;;;;;5097020;27;20096;-89
2024/01/21 10:06:18;;;;;;;1.20;1.20;;;6.00;99.90;;;;;;5096421;27;20051;-90
2024/01/21 10:08:44;;;;;;;1.20;1.20;;;6.00;99.90;;;;;;5095282;27;20089;-90
2024/01/21 10:11:09;;;;;;;1.25;1.25;;;6.10;99.90;;;;;;5108841;27;20043;-91
2024/01/21 10:13:38;;;;;;;1.20;1.20;;;6.00;99.90;;;;;;5106161;27;20047;-89
2024/01/21 10:16:05;;;;;;;1.20;1.20;;;6.10;99.90;;;;;;5109798;27;20101;-92
2024/01/21 10:18:31;;;;;;;1.25;1.25;;;6.10;99.90;;;;;;5094194;27;20051;-91
2024/01/21 10:20:58;;;;;;;1.30;1.30;;;6.20;99.90;;;;;;5112044;27;20053;-91
2024/01/21 10:23:23;;;;;;;1.42;1.38;;;6.30;99.90;;;;;;5111903;27;20059;-92
2024/01/21 10:25:50;;;;;;;1.30;1.30;;;6.30;99.90;;;;;;5092887;27;20043;-91
2024/01/21 10:28:17;;;;;;;1.30;1.30;;;6.30;99.90;;;;;;5110315;27;20050;-92
2024/01/21 10:30:46;;;;;;;1.30;1.30;;;6.30;99.90;;;;;;5107625;27;20543;-93
2024/01/21 10:33:13;;;;;;;1.35;1.30;;;6.30;99.90;;;;;;5093762;27;20429;-91
2024/01/21 10:35:39;;;;;;;1.27;1.27;;;6.30;99.90;;;;;;5094723;27;20117;-91
2024/01/21 10:38:11;;;;;;;1.30;1.30;;;6.40;99.90;;;;;;5111188;27;20074;-89
2024/01/21 10:40:43;;;;;;;1.30;1.30;;;6.40;99.90;;;;;;5087753;27;20042;-89
2024/01/21 10:43:21;;;;;;;1.20;1.20;;;6.40;99.90;;;;;;5093934;27;20126;-91
2024/01/21 10:45:47;;;;;;;1.30;1.30;;;6.40;99.90;;;;;;5089413;27;20066;-91
2024/01/21 10:48:13;;;;;;;1.50;1.40;;;6.40;99.90;;;;;;5110280;27;20097;-89
2024/01/21 10:50:43;;;;;;;1.30;1.30;;;6.40;99.90;;;;;;5094971;27;20087;-90
2024/01/21 10:53:12;;;;;;;1.20;1.20;;;6.40;99.90;;;;;;5111335;27;20100;-90
2024/01/21 10:55:41;;;;;;;1.20;1.20;;;6.40;99.90;;;;;;5094817;27;20078;-89
2024/01/21 10:58:08;;;;;;;1.10;1.10;;;6.40;99.90;;;;;;5093131;27;20122;-92
2024/01/21 11:00:38;;;;;;;1.20;1.20;;;6.40;99.90;;;;;;5109549;27;20082;-94
2024/01/21 11:03:27;;;;;;;1.20;1.20;;;6.50;99.90;;;;;;5095132;27;20462;-88
2024/01/21 11:06:00;;;;;;;1.10;1.10;;;6.60;99.90;;;;;;5091007;27;20051;-90
2024/01/21 11:08:27;;;;;;;1.10;1.10;;;6.60;99.90;;;;;;5110808;27;21324;-92
2024/01/21 11:11:09;;;;;;;1.10;1.10;;;6.60;99.90;;;;;;5090845;27;20072;-92
2024/01/21 11:13:51;;;;;;;1.10;1.10;;;6.70;99.90;;;;;;5092369;27;20560;-92
2024/01/21 11:16:26;;;;;;;1.00;1.00;;;6.70;99.90;;;;;;5091823;27;20047;-91
2024/01/21 11:18:58;;;;;;;1.00;1.00;;;6.70;99.90;;;;;;5089574;27;20054;-93
2024/01/21 11:21:25;;;;;;;1.00;1.00;;;6.70;99.90;;;;;;5093339;27;20047;-90
2024/01/21 11:24:13;;;;;;;1.00;1.00;;;6.70;99.90;;;;;;5090377;27;20054;-90
2024/01/21 11:26:48;;;;;;;1.00;1.00;;;6.60;99.90;;;;;;5093469;27;20074;-90
2024/01/21 11:29:28;;;;;;;0.95;0.95;;;6.70;99.90;;;;;;5091315;27;20072;-89
2024/01/21 11:31:57;;;;;;;1.00;1.00;;;6.60;99.90;;;;;;5106439;27;20046;-90
2024/01/21 11:34:23;;;;;;;1.05;1.05;;;6.50;99.90;;;;;;5094801;27;20058;-91
2024/01/21 11:36:50;;;;;;;1.00;1.00;;;6.50;99.90;;;;;;5108585;27;20085;-91
2024/01/21 11:39:18;;;;;;;1.00;1.00;;;6.40;99.90;;;;;;5092133;27;20035;-90
2024/01/21 11:41:44;;;;;;;1.00;1.00;;;6.40;1.00;;;;;;5111620;27;20047;-88
2024/01/21 11:44:13;;;;;;;1.00;1.00;;;6.30;1.00;;;;;;5111791;27;20047;-91
2024/01/21 11:46:43;;;;;;;1.00;1.00;;;6.40;1.00;;;;;;5111169;27;20086;-92
2024/01/21 11:49:09;;;;;;;1.00;1.00;;;6.50;1.00;;;;;;5094155;27;20038;-90
2024/01/21 11:51:36;;;;;;;1.05;1.05;;;6.50;1.00;;;;;;5110968;27;20046;-92
2024/01/21 11:54:02;;;;;;;1.00;1.00;;;6.60;1.00;;;;;;5096034;27;20043;-89
2024/01/21 11:56:27;;;;;;;1.00;1.00;;;6.60;1.00;;;;;;5091992;27;20142;-92
2024/01/21 11:58:53;;;;;;;1.00;1.00;;;6.60;1.00;;;;;;5095542;28;20043;-91
2024/01/21 12:01:20;;;;;;;1.00;1.00;;;6.60;1.00;;;;;;5090640;28;20054;-92
2024/01/21 12:03:49;;;;;;;1.00;1.00;;;6.70;1.00;;;;;;5116437;27;20046;-91
2024/01/21 12:06:16;;;;;;;1.00;1.00;;;6.60;1.00;;;;;;5106121;28;20039;-92
2024/01/21 12:08:45;;;;;;;0.98;0.98;;;6.60;1.00;;;;;;5112261;28;20124;-90
2024/01/21 12:11:16;;;;;;;0.90;0.90;;;6.70;1.00;;;;;;5088256;28;20134;-90
2024/01/21 12:13:43;;;;;;;0.90;0.90;;;6.80;1.00;;;;;;5094699;27;20074;-90
2024/01/21 12:16:10;;;;;;;0.98;0.98;;;6.80;1.00;;;;;;5093300;28;20067;-89
2024/01/21 12:18:40;;;;;;;1.00;1.00;;;6.80;1.00;;;;;;5090765;28;20051;-92
2024/01/21 12:21:06;;;;;;;0.93;0.93;;;6.80;1.00;;;;;;5109860;28;20043;-88
2024/01/21 12:23:32;;;;;;;0.90;0.90;;;6.80;1.00;;;;;;5113322;28;20039;-90
2024/01/21 12:25:59;;;;;;;0.93;0.93;;;6.80;1.00;;;;;;5095772;28;20043;-89
2024/01/21 12:28:24;;;;;;;0.95;0.95;;;6.80;1.00;;;;;;5093213;28;20047;-87
2024/01/21 12:30:50;;;;;;;0.90;0.90;;;6.80;1.00;;;;;;5114415;27;20035;-88
2024/01/21 12:33:16;;;;;;;0.90;0.90;;;6.80;1.00;;;;;;5112907;27;20039;-92
2024/01/21 12:35:45;;;;;;;0.90;0.90;;;6.80;1.00;;;;;;5098933;27;20096;-90
2024/01/21 12:38:10;;;;;;;1.00;1.00;;;6.90;1.00;;;;;;5096095;27;20039;-87
2024/01/21 12:40:38;;;;;;;1.00;1.00;;;6.90;1.00;;;;;;5114647;27;20054;-88
2024/01/21 12:43:03;;;;;;;0.90;0.90;;;6.90;1.00;;;;;;5098065;27;20046;-88
2024/01/21 12:45:29;;;;;;;0.90;0.90;;;6.90;1.00;;;;;;5094031;27;20529;-91
2024/01/21 12:47:55;;;;;;;1.00;1.00;;;7.00;1.00;;;;;;5112724;27;20457;-88
2024/01/21 12:50:22;;;;;;;1.00;1.00;;;7.10;1.00;;;;;;5111029;27;20039;-90
2024/01/21 12:52:47;;;;;;;1.00;1.00;;;7.10;1.00;;;;;;5109888;27;20047;-91
2024/01/21 12:55:13;;;;;;;1.00;1.00;;;7.00;1.00;;;;;;5112049;27;20051;-89
2024/01/21 12:57:39;;;;;;;1.00;1.00;;;7.10;1.00;;;;;;5097914;27;20047;-90
2024/01/21 13:00:05;;;;;;;1.00;1.00;;;7.10;1.00;;;;;;5113044;27;20058;-89
2024/01/21 13:02:31;;;;;;;1.02;1.02;;;7.30;1.00;;;;;;5094669;27;20050;-90
2024/01/21 13:04:56;;;;;;;1.00;1.00;;;7.30;1.00;;;;;;5114311;27;20407;-91
2024/01/21 13:07:22;;;;;;;1.00;1.00;;;7.30;1.00;;;;;;5094512;27;20072;-91